Terminal Aerodrome Forecast
Issued by NWS Atlanta, GA

Home | Current Version | Previous Version | Text Only | Print | Product List | Glossary On
Versions: 1 2 3 4 5 6 7 8 9 10 11 12 13 14 15 16 17 18 19 20 21 22 23 24 25 26 27 28 29 30 31 32 33 34 35 36 37 38
840
FTUS42 KFFC 191731
TAFATL
TAF
KATL 191731Z 1918/2024 15008KT 6SM BR BKN008
      TEMPO 1918/1920 BKN015
     FM192000 16008KT P6SM BKN045
     FM200700 14005KT 4SM BR OVC007
     FM201000 14006KT 1SM BR OVC003
     FM201600 15007KT P6SM BKN010
     FM201900 15007KT P6SM BKN025=

USA.gov is the U.S. government's official web portal to all federal, state and local government web resources and services.